sensor_id;sensor_type;location;lat;lon;timestamp;P1;durP1;ratioP1;P2;durP2;ratioP2
9260;SDS011;4667;42.726;23.252;2023-04-24T00:01:13;6.00;;;4.50;;
9260;SDS011;4667;42.726;23.252;2023-04-24T00:03:40;5.90;;;3.97;;
9260;SDS011;4667;42.726;23.252;2023-04-24T00:06:06;7.63;;;4.50;;
9260;SDS011;4667;42.726;23.252;2023-04-24T00:08:33;5.50;;;4.30;;
9260;SDS011;4667;42.726;23.252;2023-04-24T00:11:00;9.67;;;4.13;;
9260;SDS011;4667;42.726;23.252;2023-04-24T00:13:27;4.50;;;3.87;;
9260;SDS011;4667;42.726;23.252;2023-04-24T00:15:55;5.50;;;4.10;;
9260;SDS011;4667;42.726;23.252;2023-04-24T00:18:22;4.03;;;3.17;;
9260;SDS011;4667;42.726;23.252;2023-04-24T00:20:48;5.40;;;4.00;;
9260;SDS011;4667;42.726;23.252;2023-04-24T00:23:15;5.83;;;3.63;;
9260;SDS011;4667;42.726;23.252;2023-04-24T00:25:41;5.23;;;3.37;;
9260;SDS011;4667;42.726;23.252;2023-04-24T00:28:08;5.30;;;4.00;;
9260;SDS011;4667;42.726;23.252;2023-04-24T00:30:34;8.17;;;3.30;;
9260;SDS011;4667;42.726;23.252;2023-04-24T00:33:02;4.73;;;3.73;;
9260;SDS011;4667;42.726;23.252;2023-04-24T00:35:29;7.30;;;5.30;;
9260;SDS011;4667;42.726;23.252;2023-04-24T00:37:55;6.20;;;4.97;;
9260;SDS011;4667;42.726;23.252;2023-04-24T00:40:22;5.23;;;4.73;;
9260;SDS011;4667;42.726;23.252;2023-04-24T00:42:48;6.53;;;5.77;;
9260;SDS011;4667;42.726;23.252;2023-04-24T00:45:15;8.33;;;5.67;;
9260;SDS011;4667;42.726;23.252;2023-04-24T00:47:41;7.17;;;5.20;;
9260;SDS011;4667;42.726;23.252;2023-04-24T00:50:09;7.77;;;5.30;;
9260;SDS011;4667;42.726;23.252;2023-04-24T00:52:36;11.33;;;5.77;;
9260;SDS011;4667;42.726;23.252;2023-04-24T00:55:06;7.80;;;5.47;;
9260;SDS011;4667;42.726;23.252;2023-04-24T00:57:32;8.97;;;5.97;;
9260;SDS011;4667;42.726;23.252;2023-04-24T00:59:59;7.20;;;5.20;;
9260;SDS011;4667;42.726;23.252;2023-04-24T01:02:25;7.43;;;6.00;;
9260;SDS011;4667;42.726;23.252;2023-04-24T01:04:52;9.13;;;6.00;;
9260;SDS011;4667;42.726;23.252;2023-04-24T01:07:20;7.33;;;5.23;;
9260;SDS011;4667;42.726;23.252;2023-04-24T01:09:47;8.60;;;5.33;;
9260;SDS011;4667;42.726;23.252;2023-04-24T01:12:16;5.77;;;5.17;;
9260;SDS011;4667;42.726;23.252;2023-04-24T01:14:42;8.47;;;5.83;;
9260;SDS011;4667;42.726;23.252;2023-04-24T01:17:09;9.23;;;5.73;;
9260;SDS011;4667;42.726;23.252;2023-04-24T01:19:36;7.23;;;5.53;;
9260;SDS011;4667;42.726;23.252;2023-04-24T01:22:03;8.10;;;5.43;;
9260;SDS011;4667;42.726;23.252;2023-04-24T01:24:31;8.80;;;5.67;;
9260;SDS011;4667;42.726;23.252;2023-04-24T01:26:57;8.00;;;6.00;;
9260;SDS011;4667;42.726;23.252;2023-04-24T01:29:26;8.90;;;6.33;;
9260;SDS011;4667;42.726;23.252;2023-04-24T01:31:53;7.07;;;5.97;;
9260;SDS011;4667;42.726;23.252;2023-04-24T01:34:19;8.03;;;5.57;;
9260;SDS011;4667;42.726;23.252;2023-04-24T01:36:46;9.87;;;6.00;;
9260;SDS011;4667;42.726;23.252;2023-04-24T01:39:13;8.83;;;5.23;;
9260;SDS011;4667;42.726;23.252;2023-04-24T01:41:42;9.20;;;6.00;;
9260;SDS011;4667;42.726;23.252;2023-04-24T01:44:08;6.50;;;4.73;;
9260;SDS011;4667;42.726;23.252;2023-04-24T01:46:35;6.97;;;5.27;;
9260;SDS011;4667;42.726;23.252;2023-04-24T01:49:01;6.63;;;5.60;;
9260;SDS011;4667;42.726;23.252;2023-04-24T01:51:28;5.80;;;5.20;;
9260;SDS011;4667;42.726;23.252;2023-04-24T01:53:55;9.43;;;5.47;;
9260;SDS011;4667;42.726;23.252;2023-04-24T01:56:21;12.03;;;6.13;;
9260;SDS011;4667;42.726;23.252;2023-04-24T01:58:49;7.43;;;5.43;;
9260;SDS011;4667;42.726;23.252;2023-04-24T02:01:17;7.73;;;4.83;;
9260;SDS011;4667;42.726;23.252;2023-04-24T02:03:44;7.30;;;5.30;;
9260;SDS011;4667;42.726;23.252;2023-04-24T02:06:10;5.83;;;5.20;;
9260;SDS011;4667;42.726;23.252;2023-04-24T02:08:37;9.47;;;6.57;;
9260;SDS011;4667;42.726;23.252;2023-04-24T02:11:03;6.83;;;5.47;;
9260;SDS011;4667;42.726;23.252;2023-04-24T02:13:31;7.87;;;5.57;;
9260;SDS011;4667;42.726;23.252;2023-04-24T02:15:59;12.70;;;5.67;;
9260;SDS011;4667;42.726;23.252;2023-04-24T02:18:25;7.87;;;5.80;;
9260;SDS011;4667;42.726;23.252;2023-04-24T02:20:52;5.70;;;4.47;;
9260;SDS011;4667;42.726;23.252;2023-04-24T02:23:18;8.10;;;5.60;;
9260;SDS011;4667;42.726;23.252;2023-04-24T02:25:45;7.80;;;5.00;;
9260;SDS011;4667;42.726;23.252;2023-04-24T02:28:12;9.40;;;5.53;;
9260;SDS011;4667;42.726;23.252;2023-04-24T02:30:38;6.20;;;4.97;;
9260;SDS011;4667;42.726;23.252;2023-04-24T02:33:06;9.00;;;5.13;;
9260;SDS011;4667;42.726;23.252;2023-04-24T02:35:32;5.17;;;4.43;;
9260;SDS011;4667;42.726;23.252;2023-04-24T02:37:59;6.93;;;5.30;;
9260;SDS011;4667;42.726;23.252;2023-04-24T02:40:26;6.50;;;4.63;;
9260;SDS011;4667;42.726;23.252;2023-04-24T02:42:52;8.80;;;5.87;;
9260;SDS011;4667;42.726;23.252;2023-04-24T02:45:19;10.73;;;5.93;;
9260;SDS011;4667;42.726;23.252;2023-04-24T02:47:45;11.40;;;5.17;;
9260;SDS011;4667;42.726;23.252;2023-04-24T02:50:13;6.97;;;4.87;;
9260;SDS011;4667;42.726;23.252;2023-04-24T02:52:39;5.43;;;4.90;;
9260;SDS011;4667;42.726;23.252;2023-04-24T02:55:06;6.33;;;5.00;;
9260;SDS011;4667;42.726;23.252;2023-04-24T02:57:34;6.40;;;4.67;;
9260;SDS011;4667;42.726;23.252;2023-04-24T03:00:00;5.37;;;4.87;;
9260;SDS011;4667;42.726;23.252;2023-04-24T03:02:27;9.40;;;6.17;;
9260;SDS011;4667;42.726;23.252;2023-04-24T03:04:53;6.77;;;5.70;;
9260;SDS011;4667;42.726;23.252;2023-04-24T03:07:21;7.07;;;5.30;;
9260;SDS011;4667;42.726;23.252;2023-04-24T03:09:49;5.73;;;4.80;;
9260;SDS011;4667;42.726;23.252;2023-04-24T03:12:15;8.87;;;5.87;;
9260;SDS011;4667;42.726;23.252;2023-04-24T03:14:42;5.83;;;4.63;;
9260;SDS011;4667;42.726;23.252;2023-04-24T03:17:09;8.13;;;5.20;;
9260;SDS011;4667;42.726;23.252;2023-04-24T03:19:35;8.40;;;5.53;;
9260;SDS011;4667;42.726;23.252;2023-04-24T03:22:05;9.50;;;5.63;;
9260;SDS011;4667;42.726;23.252;2023-04-24T03:24:32;6.07;;;5.40;;
9260;SDS011;4667;42.726;23.252;2023-04-24T03:26:59;6.77;;;4.70;;
9260;SDS011;4667;42.726;23.252;2023-04-24T03:29:25;12.83;;;6.20;;
9260;SDS011;4667;42.726;23.252;2023-04-24T03:31:52;7.70;;;5.17;;
9260;SDS011;4667;42.726;23.252;2023-04-24T03:34:18;10.10;;;5.33;;
9260;SDS011;4667;42.726;23.252;2023-04-24T03:36:45;7.57;;;4.47;;
9260;SDS011;4667;42.726;23.252;2023-04-24T03:39:12;6.07;;;5.13;;
9260;SDS011;4667;42.726;23.252;2023-04-24T03:41:40;6.17;;;5.33;;
9260;SDS011;4667;42.726;23.252;2023-04-24T03:44:06;9.27;;;5.77;;
9260;SDS011;4667;42.726;23.252;2023-04-24T03:46:33;6.67;;;5.13;;
9260;SDS011;4667;42.726;23.252;2023-04-24T03:48:59;7.00;;;4.80;;
9260;SDS011;4667;42.726;23.252;2023-04-24T03:51:26;6.43;;;5.83;;
9260;SDS011;4667;42.726;23.252;2023-04-24T03:53:55;6.57;;;5.87;;
9260;SDS011;4667;42.726;23.252;2023-04-24T03:56:22;12.13;;;5.30;;
9260;SDS011;4667;42.726;23.252;2023-04-24T03:58:49;6.60;;;5.87;;
9260;SDS011;4667;42.726;23.252;2023-04-24T04:01:16;6.57;;;4.43;;
9260;SDS011;4667;42.726;23.252;2023-04-24T04:03:44;9.03;;;5.80;;
9260;SDS011;4667;42.726;23.252;2023-04-24T04:06:10;6.27;;;5.47;;
9260;SDS011;4667;42.726;23.252;2023-04-24T04:08:38;10.97;;;5.37;;
9260;SDS011;4667;42.726;23.252;2023-04-24T04:11:04;8.33;;;5.00;;
9260;SDS011;4667;42.726;23.252;2023-04-24T04:13:31;7.63;;;5.03;;
9260;SDS011;4667;42.726;23.252;2023-04-24T04:15:58;8.57;;;5.23;;
9260;SDS011;4667;42.726;23.252;2023-04-24T04:18:25;10.47;;;5.67;;
9260;SDS011;4667;42.726;23.252;2023-04-24T04:20:51;7.23;;;4.47;;
9260;SDS011;4667;42.726;23.252;2023-04-24T04:23:18;6.17;;;4.90;;
9260;SDS011;4667;42.726;23.252;2023-04-24T04:25:44;5.37;;;4.77;;
9260;SDS011;4667;42.726;23.252;2023-04-24T04:28:12;10.67;;;5.90;;
9260;SDS011;4667;42.726;23.252;2023-04-24T04:30:38;7.13;;;5.67;;
9260;SDS011;4667;42.726;23.252;2023-04-24T04:33:06;5.13;;;4.27;;
9260;SDS011;4667;42.726;23.252;2023-04-24T04:35:33;8.90;;;4.73;;
9260;SDS011;4667;42.726;23.252;2023-04-24T04:38:00;5.83;;;5.13;;
9260;SDS011;4667;42.726;23.252;2023-04-24T04:40:26;5.20;;;4.70;;
9260;SDS011;4667;42.726;23.252;2023-04-24T04:42:53;6.80;;;4.87;;
9260;SDS011;4667;42.726;23.252;2023-04-24T04:45:19;10.37;;;5.60;;
9260;SDS011;4667;42.726;23.252;2023-04-24T04:47:46;7.33;;;5.67;;
9260;SDS011;4667;42.726;23.252;2023-04-24T04:50:15;8.13;;;4.80;;
9260;SDS011;4667;42.726;23.252;2023-04-24T04:52:44;6.53;;;5.27;;
9260;SDS011;4667;42.726;23.252;2023-04-24T04:55:11;8.40;;;6.03;;
9260;SDS011;4667;42.726;23.252;2023-04-24T04:57:38;10.23;;;5.60;;
9260;SDS011;4667;42.726;23.252;2023-04-24T05:00:05;9.60;;;5.47;;
9260;SDS011;4667;42.726;23.252;2023-04-24T05:02:36;7.47;;;5.30;;
9260;SDS011;4667;42.726;23.252;2023-04-24T05:05:03;7.07;;;4.83;;
9260;SDS011;4667;42.726;23.252;2023-04-24T05:07:32;10.30;;;5.07;;
9260;SDS011;4667;42.726;23.252;2023-04-24T05:09:59;8.17;;;5.30;;
9260;SDS011;4667;42.726;23.252;2023-04-24T05:12:27;7.13;;;5.27;;
9260;SDS011;4667;42.726;23.252;2023-04-24T05:15:08;5.57;;;4.83;;
9260;SDS011;4667;42.726;23.252;2023-04-24T05:17:36;10.03;;;4.93;;
9260;SDS011;4667;42.726;23.252;2023-04-24T05:20:07;6.77;;;4.67;;
9260;SDS011;4667;42.726;23.252;2023-04-24T05:22:43;7.13;;;5.07;;
9260;SDS011;4667;42.726;23.252;2023-04-24T05:25:23;5.40;;;4.87;;
9260;SDS011;4667;42.726;23.252;2023-04-24T05:28:04;6.67;;;5.90;;
9260;SDS011;4667;42.726;23.252;2023-04-24T05:30:39;6.27;;;4.77;;
9260;SDS011;4667;42.726;23.252;2023-04-24T05:33:19;4.40;;;4.00;;
9260;SDS011;4667;42.726;23.252;2023-04-24T05:35:47;9.10;;;5.27;;
9260;SDS011;4667;42.726;23.252;2023-04-24T05:38:16;7.20;;;5.80;;
9260;SDS011;4667;42.726;23.252;2023-04-24T05:40:44;9.47;;;5.00;;
9260;SDS011;4667;42.726;23.252;2023-04-24T05:43:11;12.83;;;4.87;;
9260;SDS011;4667;42.726;23.252;2023-04-24T05:45:38;10.13;;;4.73;;
9260;SDS011;4667;42.726;23.252;2023-04-24T05:48:04;8.97;;;5.10;;
9260;SDS011;4667;42.726;23.252;2023-04-24T05:50:31;6.07;;;4.70;;
9260;SDS011;4667;42.726;23.252;2023-04-24T05:52:57;5.83;;;4.37;;
9260;SDS011;4667;42.726;23.252;2023-04-24T05:55:25;8.23;;;4.63;;
9260;SDS011;4667;42.726;23.252;2023-04-24T05:57:52;8.90;;;4.77;;
9260;SDS011;4667;42.726;23.252;2023-04-24T06:00:18;8.23;;;5.47;;
9260;SDS011;4667;42.726;23.252;2023-04-24T06:02:45;11.23;;;4.90;;
9260;SDS011;4667;42.726;23.252;2023-04-24T06:05:15;5.20;;;4.57;;
9260;SDS011;4667;42.726;23.252;2023-04-24T06:07:55;7.30;;;4.17;;
9260;SDS011;4667;42.726;23.252;2023-04-24T06:10:22;6.57;;;4.63;;
9260;SDS011;4667;42.726;23.252;2023-04-24T06:12:53;5.30;;;4.20;;
9260;SDS011;4667;42.726;23.252;2023-04-24T06:15:25;4.37;;;3.97;;
9260;SDS011;4667;42.726;23.252;2023-04-24T06:17:52;9.27;;;4.33;;
9260;SDS011;4667;42.726;23.252;2023-04-24T06:20:19;6.20;;;4.30;;
9260;SDS011;4667;42.726;23.252;2023-04-24T06:23:00;4.97;;;3.53;;
9260;SDS011;4667;42.726;23.252;2023-04-24T06:25:27;9.70;;;5.77;;
9260;SDS011;4667;42.726;23.252;2023-04-24T06:27:59;5.27;;;3.80;;
9260;SDS011;4667;42.726;23.252;2023-04-24T06:30:29;6.23;;;4.37;;
9260;SDS011;4667;42.726;23.252;2023-04-24T06:33:09;6.83;;;5.30;;
9260;SDS011;4667;42.726;23.252;2023-04-24T06:35:49;4.33;;;3.93;;
9260;SDS011;4667;42.726;23.252;2023-04-24T06:38:29;9.03;;;4.30;;
9260;SDS011;4667;42.726;23.252;2023-04-24T06:40:56;10.33;;;4.40;;
9260;SDS011;4667;42.726;23.252;2023-04-24T06:43:32;11.97;;;4.57;;
9260;SDS011;4667;42.726;23.252;2023-04-24T06:45:59;7.33;;;4.47;;
9260;SDS011;4667;42.726;23.252;2023-04-24T06:48:30;5.37;;;4.23;;
9260;SDS011;4667;42.726;23.252;2023-04-24T06:50:59;9.63;;;4.63;;
9260;SDS011;4667;42.726;23.252;2023-04-24T06:53:26;6.13;;;4.43;;
9260;SDS011;4667;42.726;23.252;2023-04-24T06:56:01;8.47;;;5.20;;
9260;SDS011;4667;42.726;23.252;2023-04-24T06:58:33;5.57;;;4.57;;
9260;SDS011;4667;42.726;23.252;2023-04-24T07:01:14;6.00;;;3.93;;
9260;SDS011;4667;42.726;23.252;2023-04-24T07:03:54;6.10;;;3.77;;
9260;SDS011;4667;42.726;23.252;2023-04-24T07:06:24;8.00;;;3.80;;
9260;SDS011;4667;42.726;23.252;2023-04-24T07:09:05;4.83;;;3.50;;
9260;SDS011;4667;42.726;23.252;2023-04-24T07:11:35;4.33;;;3.60;;
9260;SDS011;4667;42.726;23.252;2023-04-24T07:17:05;7.47;;;4.83;;
9260;SDS011;4667;42.726;23.252;2023-04-24T07:19:34;6.10;;;3.60;;
9260;SDS011;4667;42.726;23.252;2023-04-24T07:22:02;7.80;;;4.87;;
9260;SDS011;4667;42.726;23.252;2023-04-24T07:24:28;7.63;;;5.30;;
9260;SDS011;4667;42.726;23.252;2023-04-24T07:26:59;7.20;;;4.00;;
9260;SDS011;4667;42.726;23.252;2023-04-24T07:29:30;5.50;;;4.33;;
9260;SDS011;4667;42.726;23.252;2023-04-24T07:38:02;7.03;;;3.83;;
9260;SDS011;4667;42.726;23.252;2023-04-24T07:40:30;8.50;;;5.17;;
9260;SDS011;4667;42.726;23.252;2023-04-24T07:45:29;7.00;;;4.80;;
9260;SDS011;4667;42.726;23.252;2023-04-24T07:48:23;8.30;;;4.60;;
9260;SDS011;4667;42.726;23.252;2023-04-24T07:51:25;14.60;;;7.03;;
9260;SDS011;4667;42.726;23.252;2023-04-24T08:10:02;7.93;;;4.93;;
9260;SDS011;4667;42.726;23.252;2023-04-24T08:12:43;6.63;;;3.93;;
9260;SDS011;4667;42.726;23.252;2023-04-24T08:15:23;6.43;;;4.67;;
9260;SDS011;4667;42.726;23.252;2023-04-24T08:18:04;6.40;;;4.90;;
9260;SDS011;4667;42.726;23.252;2023-04-24T08:21:01;8.00;;;4.10;;
9260;SDS011;4667;42.726;23.252;2023-04-24T08:23:41;5.30;;;3.73;;
9260;SDS011;4667;42.726;23.252;2023-04-24T08:35:05;5.03;;;3.85;;
9260;SDS011;4667;42.726;23.252;2023-04-24T08:37:46;4.72;;;4.07;;
9260;SDS011;4667;42.726;23.252;2023-04-24T08:40:14;4.43;;;4.03;;
9260;SDS011;4667;42.726;23.252;2023-04-24T08:42:41;4.75;;;3.80;;
9260;SDS011;4667;42.726;23.252;2023-04-24T08:45:10;7.45;;;4.25;;
9260;SDS011;4667;42.726;23.252;2023-04-24T08:47:42;5.43;;;3.45;;
9260;SDS011;4667;42.726;23.252;2023-04-24T08:50:11;4.28;;;3.83;;
9260;SDS011;4667;42.726;23.252;2023-04-24T08:52:38;6.22;;;3.85;;
9260;SDS011;4667;42.726;23.252;2023-04-24T08:55:05;5.50;;;3.78;;
9260;SDS011;4667;42.726;23.252;2023-04-24T08:57:31;4.85;;;3.65;;
9260;SDS011;4667;42.726;23.252;2023-04-24T09:00:01;5.95;;;5.18;;
9260;SDS011;4667;42.726;23.252;2023-04-24T09:02:28;7.60;;;3.63;;
9260;SDS011;4667;42.726;23.252;2023-04-24T09:04:57;5.50;;;3.75;;
9260;SDS011;4667;42.726;23.252;2023-04-24T09:07:26;4.18;;;3.75;;
9260;SDS011;4667;42.726;23.252;2023-04-24T09:09:53;4.63;;;4.13;;
9260;SDS011;4667;42.726;23.252;2023-04-24T09:12:20;8.05;;;3.90;;
9260;SDS011;4667;42.726;23.252;2023-04-24T09:14:47;4.13;;;3.42;;
9260;SDS011;4667;42.726;23.252;2023-04-24T09:17:14;6.03;;;3.20;;
9260;SDS011;4667;42.726;23.252;2023-04-24T09:19:41;4.80;;;3.58;;
9260;SDS011;4667;42.726;23.252;2023-04-24T09:22:09;5.50;;;3.38;;
9260;SDS011;4667;42.726;23.252;2023-04-24T09:24:37;6.78;;;3.38;;
9260;SDS011;4667;42.726;23.252;2023-04-24T09:27:06;4.78;;;4.15;;
9260;SDS011;4667;42.726;23.252;2023-04-24T09:29:33;4.93;;;3.45;;
9260;SDS011;4667;42.726;23.252;2023-04-24T09:32:04;4.63;;;3.30;;
9260;SDS011;4667;42.726;23.252;2023-04-24T09:34:46;8.65;;;3.35;;
9260;SDS011;4667;42.726;23.252;2023-04-24T09:37:28;3.70;;;3.17;;
9260;SDS011;4667;42.726;23.252;2023-04-24T09:40:13;3.38;;;2.83;;
9260;SDS011;4667;42.726;23.252;2023-04-24T09:42:45;5.72;;;3.30;;
9260;SDS011;4667;42.726;23.252;2023-04-24T09:45:12;5.13;;;3.65;;
9260;SDS011;4667;42.726;23.252;2023-04-24T09:47:40;7.13;;;4.47;;
9260;SDS011;4667;42.726;23.252;2023-04-24T09:50:11;6.45;;;3.15;;
9260;SDS011;4667;42.726;23.252;2023-04-24T09:52:55;5.60;;;3.50;;
9260;SDS011;4667;42.726;23.252;2023-04-24T09:55:24;4.90;;;3.45;;
9260;SDS011;4667;42.726;23.252;2023-04-24T09:57:52;3.38;;;2.88;;
9260;SDS011;4667;42.726;23.252;2023-04-24T10:00:33;4.32;;;3.33;;
9260;SDS011;4667;42.726;23.252;2023-04-24T10:03:00;4.28;;;3.08;;
9260;SDS011;4667;42.726;23.252;2023-04-24T10:05:28;5.70;;;3.08;;
9260;SDS011;4667;42.726;23.252;2023-04-24T10:07:59;4.28;;;2.53;;
9260;SDS011;4667;42.726;23.252;2023-04-24T10:10:31;3.42;;;2.92;;
9260;SDS011;4667;42.726;23.252;2023-04-24T10:12:58;3.75;;;2.85;;
9260;SDS011;4667;42.726;23.252;2023-04-24T10:15:25;5.43;;;3.20;;
9260;SDS011;4667;42.726;23.252;2023-04-24T10:17:53;4.32;;;3.10;;
9260;SDS011;4667;42.726;23.252;2023-04-24T10:20:20;3.45;;;3.13;;
9260;SDS011;4667;42.726;23.252;2023-04-24T10:22:48;5.10;;;3.65;;
9260;SDS011;4667;42.726;23.252;2023-04-24T10:25:16;4.75;;;2.85;;
9260;SDS011;4667;42.726;23.252;2023-04-24T10:27:44;9.20;;;3.67;;
9260;SDS011;4667;42.726;23.252;2023-04-24T10:30:12;3.97;;;3.35;;
9260;SDS011;4667;42.726;23.252;2023-04-24T10:32:39;4.20;;;3.13;;
9260;SDS011;4667;42.726;23.252;2023-04-24T10:35:05;3.45;;;2.72;;
9260;SDS011;4667;42.726;23.252;2023-04-24T10:37:34;5.00;;;3.30;;
9260;SDS011;4667;42.726;23.252;2023-04-24T10:40:01;4.20;;;3.10;;
9260;SDS011;4667;42.726;23.252;2023-04-24T10:42:27;6.55;;;2.70;;
9260;SDS011;4667;42.726;23.252;2023-04-24T10:44:55;3.13;;;2.60;;
9260;SDS011;4667;42.726;23.252;2023-04-24T10:47:23;5.40;;;2.83;;
9260;SDS011;4667;42.726;23.252;2023-04-24T10:49:50;2.22;;;2.03;;
9260;SDS011;4667;42.726;23.252;2023-04-24T10:52:17;3.47;;;2.50;;
9260;SDS011;4667;42.726;23.252;2023-04-24T10:54:44;3.70;;;2.60;;
9260;SDS011;4667;42.726;23.252;2023-04-24T10:57:27;7.75;;;3.28;;
9260;SDS011;4667;42.726;23.252;2023-04-24T11:00:20;3.90;;;3.10;;
9260;SDS011;4667;42.726;23.252;2023-04-24T11:02:47;3.20;;;2.95;;
9260;SDS011;4667;42.726;23.252;2023-04-24T11:05:18;5.05;;;2.50;;
9260;SDS011;4667;42.726;23.252;2023-04-24T11:10:29;3.60;;;2.88;;
9260;SDS011;4667;42.726;23.252;2023-04-24T11:12:56;4.22;;;2.95;;
9260;SDS011;4667;42.726;23.252;2023-04-24T11:15:24;4.22;;;3.30;;
9260;SDS011;4667;42.726;23.252;2023-04-24T11:17:50;9.15;;;3.05;;
9260;SDS011;4667;42.726;23.252;2023-04-24T11:20:22;5.13;;;3.28;;
9260;SDS011;4667;42.726;23.252;2023-04-24T11:22:51;8.55;;;3.50;;
9260;SDS011;4667;42.726;23.252;2023-04-24T11:25:19;5.73;;;2.63;;
9260;SDS011;4667;42.726;23.252;2023-04-24T11:27:47;3.03;;;2.73;;
9260;SDS011;4667;42.726;23.252;2023-04-24T11:30:16;6.50;;;2.90;;
9260;SDS011;4667;42.726;23.252;2023-04-24T11:32:47;3.17;;;2.60;;
9260;SDS011;4667;42.726;23.252;2023-04-24T11:35:14;4.47;;;2.43;;
9260;SDS011;4667;42.726;23.252;2023-04-24T11:37:41;4.70;;;2.83;;
9260;SDS011;4667;42.726;23.252;2023-04-24T11:40:11;3.60;;;2.90;;
9260;SDS011;4667;42.726;23.252;2023-04-24T11:42:38;3.17;;;2.42;;
9260;SDS011;4667;42.726;23.252;2023-04-24T11:45:08;4.15;;;2.45;;
9260;SDS011;4667;42.726;23.252;2023-04-24T11:47:35;2.88;;;2.38;;
9260;SDS011;4667;42.726;23.252;2023-04-24T11:50:04;7.47;;;3.35;;
9260;SDS011;4667;42.726;23.252;2023-04-24T11:52:32;2.47;;;2.25;;
9260;SDS011;4667;42.726;23.252;2023-04-24T11:54:59;2.95;;;2.45;;
9260;SDS011;4667;42.726;23.252;2023-04-24T11:57:26;2.88;;;2.50;;
9260;SDS011;4667;42.726;23.252;2023-04-24T11:59:54;3.80;;;2.45;;
9260;SDS011;4667;42.726;23.252;2023-04-24T12:02:21;3.58;;;3.03;;
9260;SDS011;4667;42.726;23.252;2023-04-24T12:04:48;4.03;;;2.78;;
9260;SDS011;4667;42.726;23.252;2023-04-24T12:07:16;5.93;;;2.97;;
9260;SDS011;4667;42.726;23.252;2023-04-24T12:09:43;3.25;;;2.95;;
9260;SDS011;4667;42.726;23.252;2023-04-24T12:12:10;4.40;;;2.60;;
9260;SDS011;4667;42.726;23.252;2023-04-24T12:14:44;3.13;;;2.83;;
9260;SDS011;4667;42.726;23.252;2023-04-24T12:17:10;4.63;;;2.78;;
9260;SDS011;4667;42.726;23.252;2023-04-24T12:19:37;2.90;;;2.50;;
9260;SDS011;4667;42.726;23.252;2023-04-24T12:22:04;3.88;;;2.70;;
9260;SDS011;4667;42.726;23.252;2023-04-24T12:24:32;3.13;;;2.78;;
9260;SDS011;4667;42.726;23.252;2023-04-24T12:26:59;2.63;;;2.42;;
9260;SDS011;4667;42.726;23.252;2023-04-24T12:29:26;3.88;;;2.80;;
9260;SDS011;4667;42.726;23.252;2023-04-24T12:31:53;3.13;;;2.75;;
9260;SDS011;4667;42.726;23.252;2023-04-24T12:34:20;3.42;;;2.65;;
9260;SDS011;4667;42.726;23.252;2023-04-24T12:36:47;3.10;;;2.80;;
9260;SDS011;4667;42.726;23.252;2023-04-24T12:39:14;4.68;;;2.75;;
9260;SDS011;4667;42.726;23.252;2023-04-24T12:41:50;2.80;;;2.60;;
9260;SDS011;4667;42.726;23.252;2023-04-24T12:44:28;2.92;;;2.30;;
9260;SDS011;4667;42.726;23.252;2023-04-24T12:46:54;3.60;;;2.67;;
9260;SDS011;4667;42.726;23.252;2023-04-24T12:49:21;3.10;;;2.80;;
9260;SDS011;4667;42.726;23.252;2023-04-24T12:51:47;3.42;;;3.13;;
9260;SDS011;4667;42.726;23.252;2023-04-24T12:54:14;3.00;;;2.70;;
9260;SDS011;4667;42.726;23.252;2023-04-24T12:56:40;3.03;;;2.65;;
9260;SDS011;4667;42.726;23.252;2023-04-24T12:59:08;5.20;;;2.63;;
9260;SDS011;4667;42.726;23.252;2023-04-24T13:01:35;3.47;;;2.20;;
9260;SDS011;4667;42.726;23.252;2023-04-24T13:04:01;3.00;;;2.60;;
9260;SDS011;4667;42.726;23.252;2023-04-24T13:06:28;2.60;;;2.35;;
9260;SDS011;4667;42.726;23.252;2023-04-24T13:08:54;3.75;;;2.42;;
9260;SDS011;4667;42.726;23.252;2023-04-24T13:11:22;5.13;;;2.55;;
9260;SDS011;4667;42.726;23.252;2023-04-24T13:13:49;3.30;;;2.17;;
9260;SDS011;4667;42.726;23.252;2023-04-24T13:16:17;6.13;;;2.47;;
9260;SDS011;4667;42.726;23.252;2023-04-24T13:18:44;7.07;;;2.40;;
9260;SDS011;4667;42.726;23.252;2023-04-24T13:21:10;2.63;;;2.33;;
9260;SDS011;4667;42.726;23.252;2023-04-24T13:23:37;2.55;;;2.22;;
9260;SDS011;4667;42.726;23.252;2023-04-24T13:26:03;2.35;;;1.90;;
9260;SDS011;4667;42.726;23.252;2023-04-24T13:28:30;2.40;;;2.13;;
9260;SDS011;4667;42.726;23.252;2023-04-24T13:30:56;3.58;;;2.00;;
9260;SDS011;4667;42.726;23.252;2023-04-24T13:33:24;1.92;;;1.83;;
9260;SDS011;4667;42.726;23.252;2023-04-24T13:35:51;2.15;;;1.95;;
9260;SDS011;4667;42.726;23.252;2023-04-24T13:38:17;2.83;;;2.03;;
9260;SDS011;4667;42.726;23.252;2023-04-24T13:40:46;3.13;;;2.08;;
9260;SDS011;4667;42.726;23.252;2023-04-24T13:43:13;2.47;;;2.10;;
9260;SDS011;4667;42.726;23.252;2023-04-24T13:45:39;2.17;;;1.88;;
9260;SDS011;4667;42.726;23.252;2023-04-24T13:48:06;2.40;;;2.00;;
9260;SDS011;4667;42.726;23.252;2023-04-24T13:50:35;2.60;;;2.20;;
9260;SDS011;4667;42.726;23.252;2023-04-24T13:53:01;2.03;;;1.83;;
9260;SDS011;4667;42.726;23.252;2023-04-24T13:55:28;1.90;;;1.75;;
9260;SDS011;4667;42.726;23.252;2023-04-24T13:57:56;3.53;;;2.15;;
9260;SDS011;4667;42.726;23.252;2023-04-24T14:00:22;4.53;;;2.22;;
9260;SDS011;4667;42.726;23.252;2023-04-24T14:02:48;2.42;;;1.42;;
9260;SDS011;4667;42.726;23.252;2023-04-24T14:05:15;2.35;;;1.88;;
9260;SDS011;4667;42.726;23.252;2023-04-24T14:07:43;2.35;;;2.05;;
9260;SDS011;4667;42.726;23.252;2023-04-24T14:10:10;2.95;;;1.92;;
9260;SDS011;4667;42.726;23.252;2023-04-24T14:12:36;7.47;;;2.70;;
9260;SDS011;4667;42.726;23.252;2023-04-24T14:15:03;2.28;;;1.90;;
9260;SDS011;4667;42.726;23.252;2023-04-24T14:17:30;2.92;;;2.13;;
9260;SDS011;4667;42.726;23.252;2023-04-24T14:19:56;2.38;;;1.80;;
9260;SDS011;4667;42.726;23.252;2023-04-24T14:22:24;2.50;;;2.20;;
9260;SDS011;4667;42.726;23.252;2023-04-24T14:24:52;2.10;;;1.90;;
9260;SDS011;4667;42.726;23.252;2023-04-24T14:27:19;6.30;;;2.10;;
9260;SDS011;4667;42.726;23.252;2023-04-24T14:29:45;2.17;;;1.92;;
9260;SDS011;4667;42.726;23.252;2023-04-24T14:32:12;3.75;;;1.70;;
9260;SDS011;4667;42.726;23.252;2023-04-24T14:34:40;2.47;;;2.08;;
9260;SDS011;4667;42.726;23.252;2023-04-24T14:37:06;3.17;;;1.95;;
9260;SDS011;4667;42.726;23.252;2023-04-24T14:39:33;2.40;;;2.20;;
9260;SDS011;4667;42.726;23.252;2023-04-24T14:42:01;2.65;;;2.28;;
9260;SDS011;4667;42.726;23.252;2023-04-24T14:44:27;4.72;;;3.50;;
9260;SDS011;4667;42.726;23.252;2023-04-24T14:46:53;3.20;;;2.88;;
9260;SDS011;4667;42.726;23.252;2023-04-24T14:49:20;3.60;;;2.80;;
9260;SDS011;4667;42.726;23.252;2023-04-24T14:51:46;3.28;;;2.35;;
9260;SDS011;4667;42.726;23.252;2023-04-24T14:54:13;4.13;;;2.58;;
9260;SDS011;4667;42.726;23.252;2023-04-24T14:56:39;2.90;;;2.10;;
9260;SDS011;4667;42.726;23.252;2023-04-24T14:59:10;2.67;;;2.28;;
9260;SDS011;4667;42.726;23.252;2023-04-24T15:01:36;2.90;;;2.70;;
9260;SDS011;4667;42.726;23.252;2023-04-24T15:04:03;3.78;;;2.75;;
9260;SDS011;4667;42.726;23.252;2023-04-24T15:06:29;3.70;;;2.42;;
9260;SDS011;4667;42.726;23.252;2023-04-24T15:08:57;4.95;;;3.28;;
9260;SDS011;4667;42.726;23.252;2023-04-24T15:11:23;5.18;;;3.00;;
9260;SDS011;4667;42.726;23.252;2023-04-24T15:13:50;3.60;;;2.60;;
9260;SDS011;4667;42.726;23.252;2023-04-24T15:16:18;4.65;;;2.45;;
9260;SDS011;4667;42.726;23.252;2023-04-24T15:18:45;4.60;;;2.83;;
9260;SDS011;4667;42.726;23.252;2023-04-24T15:21:12;4.03;;;2.35;;
9260;SDS011;4667;42.726;23.252;2023-04-24T15:23:38;7.82;;;3.28;;
9260;SDS011;4667;42.726;23.252;2023-04-24T15:26:05;4.23;;;2.53;;
9260;SDS011;4667;42.726;23.252;2023-04-24T15:28:31;5.95;;;4.65;;
9260;SDS011;4667;42.726;23.252;2023-04-24T15:30:58;4.97;;;3.83;;
9260;SDS011;4667;42.726;23.252;2023-04-24T15:33:26;6.83;;;3.03;;
9260;SDS011;4667;42.726;23.252;2023-04-24T15:35:52;2.77;;;2.20;;
9260;SDS011;4667;42.726;23.252;2023-04-24T15:38:19;3.00;;;2.35;;
9260;SDS011;4667;42.726;23.252;2023-04-24T15:40:45;3.57;;;3.00;;
9260;SDS011;4667;42.726;23.252;2023-04-24T15:43:13;4.27;;;2.80;;
9260;SDS011;4667;42.726;23.252;2023-04-24T15:45:40;9.00;;;6.30;;
9260;SDS011;4667;42.726;23.252;2023-04-24T15:48:06;8.47;;;4.87;;